Time;durP1;ratioP1;P1;durP2;ratioP2;P2;SDS_P1;SDS_P2;PMS_P1;PMS_P2;Temp;Humidity;BMP_temperature;BMP_pressure;BME280_temperature;BME280_humidity;BME280_pressure;Samples;Min_cycle;Max_cycle;Signal;HPM_P1;HPM_P2
2023/01/09 00:00:54;;;;;;;1.38;1.20;;;;;16.20;98312.00;;;;2076753;28;20263;-54
2023/01/09 00:01:54;;;;;;;1.30;1.00;;;;;16.20;98310.00;;;;2074043;28;20225;-55
2023/01/09 00:02:55;;;;;;;1.47;0.70;;;;;16.20;98312.00;;;;2078191;28;20257;-53
2023/01/09 00:03:55;;;;;;;0.97;0.70;;;;;16.20;98314.00;;;;2077498;28;20225;-52
2023/01/09 00:04:56;;;;;;;0.90;0.60;;;;;16.20;98305.00;;;;2075065;28;20598;-52
2023/01/09 00:05:56;;;;;;;1.37;0.80;;;;;16.20;98308.00;;;;2078209;28;20214;-53
2023/01/09 00:06:56;;;;;;;1.00;0.70;;;;;16.20;98311.00;;;;2078096;28;20229;-54
2023/01/09 00:07:56;;;;;;;1.00;0.70;;;;;16.20;98315.00;;;;2077960;28;20268;-54
2023/01/09 00:08:57;;;;;;;1.57;1.00;;;;;16.20;98311.00;;;;2078218;28;20210;-51
2023/01/09 00:09:57;;;;;;;0.90;0.70;;;;;16.20;98308.00;;;;2078346;28;20264;-52
2023/01/09 00:10:57;;;;;;;1.27;0.77;;;;;16.20;98324.00;;;;2078054;28;20408;-52
2023/01/09 00:11:58;;;;;;;1.00;0.70;;;;;16.20;98317.00;;;;2076858;28;20217;-53
2023/01/09 00:12:58;;;;;;;0.90;0.60;;;;;16.20;98310.00;;;;2078197;28;20213;-53
2023/01/09 00:13:58;;;;;;;1.50;0.97;;;;;16.20;98316.00;;;;2078208;28;20225;-54
2023/01/09 00:14:59;;;;;;;1.30;0.90;;;;;16.20;98306.00;;;;2078396;28;20232;-54
2023/01/09 00:15:59;;;;;;;1.10;0.80;;;;;16.20;98316.00;;;;2078143;28;20222;-54
2023/01/09 00:17:00;;;;;;;0.80;0.60;;;;;16.20;98312.00;;;;2078265;28;20217;-52
2023/01/09 00:18:00;;;;;;;1.47;0.80;;;;;16.20;98318.00;;;;2077707;28;20218;-52
2023/01/09 00:19:00;;;;;;;1.10;0.80;;;;;16.20;98322.00;;;;2078488;28;20263;-55
2023/01/09 00:20:01;;;;;;;1.10;0.77;;;;;16.20;98321.00;;;;2078508;28;20221;-55
2023/01/09 00:21:02;;;;;;;1.30;0.80;;;;;16.20;98313.00;;;;2078395;28;20221;-54
2023/01/09 00:22:02;;;;;;;1.35;0.82;;;;;16.20;98313.00;;;;2077623;28;20282;-55
2023/01/09 00:23:02;;;;;;;0.97;0.77;;;;;16.20;98311.00;;;;2078977;28;20256;-55
2023/01/09 00:24:03;;;;;;;1.00;0.60;;;;;16.20;98312.00;;;;2079839;28;20706;-54
2023/01/09 00:25:04;;;;;;;1.23;0.70;;;;;16.20;98311.00;;;;2079135;28;20342;-55
2023/01/09 00:26:16;;;;;;;0.80;0.60;;;;;16.20;98319.00;;;;2079952;28;20906;-54
2023/01/09 00:27:17;;;;;;;0.90;0.77;;;;;16.20;98321.00;;;;2080168;28;20452;-55
2023/01/09 00:28:17;;;;;;;1.50;0.87;;;;;16.20;98312.00;;;;2079653;28;20585;-55
2023/01/09 00:29:17;;;;;;;1.07;0.70;;;;;16.20;98318.00;;;;2079934;28;20209;-55
2023/01/09 00:30:18;;;;;;;1.10;0.70;;;;;16.20;98317.00;;;;2079723;28;20286;-55
2023/01/09 00:31:18;;;;;;;1.87;0.90;;;;;16.20;98319.00;;;;2079814;28;20596;-55
2023/01/09 00:32:19;;;;;;;1.10;0.60;;;;;16.20;98314.00;;;;2078726;28;20271;-54
2023/01/09 00:33:20;;;;;;;1.10;0.80;;;;;16.20;98309.00;;;;2075278;28;20890;-60
2023/01/09 00:34:20;;;;;;;0.90;0.77;;;;;16.20;98317.00;;;;2062737;28;20273;-60
2023/01/09 00:35:21;;;;;;;0.90;0.70;;;;;16.20;98313.00;;;;2063369;28;20296;-54
2023/01/09 00:36:22;;;;;;;1.60;0.90;;;;;16.20;98302.00;;;;2080175;28;20209;-54
2023/01/09 00:37:22;;;;;;;1.00;0.80;;;;;16.20;98307.00;;;;2078486;28;20302;-55
2023/01/09 00:38:22;;;;;;;1.03;0.87;;;;;16.20;98310.00;;;;2078735;28;20745;-55
2023/01/09 00:39:23;;;;;;;0.80;0.60;;;;;16.20;98313.00;;;;2079795;28;20214;-53
2023/01/09 00:40:23;;;;;;;1.90;0.73;;;;;16.20;98312.00;;;;2079754;28;20232;-54
2023/01/09 00:41:45;;;;;;;1.00;0.70;;;;;16.20;98319.00;;;;2079717;28;20220;-55
2023/01/09 00:42:48;;;;;;;1.00;0.68;;;;;16.20;98317.00;;;;2075918;28;20206;-55
2023/01/09 00:43:52;;;;;;;1.20;0.80;;;;;16.20;98319.00;;;;2071022;28;20210;-55
2023/01/09 00:44:57;;;;;;;0.90;0.80;;;;;16.20;98312.00;;;;2079011;28;20217;-57
2023/01/09 00:45:58;;;;;;;1.00;0.73;;;;;16.20;98312.00;;;;2070966;28;20616;-55
2023/01/09 00:47:00;;;;;;;1.10;0.80;;;;;16.20;98322.00;;;;2069946;28;20214;-55
2023/01/09 00:48:03;;;;;;;1.58;0.90;;;;;16.20;98308.00;;;;2070836;28;20269;-52
2023/01/09 00:49:04;;;;;;;0.82;0.80;;;;;16.20;98313.00;;;;2078655;28;20300;-53
2023/01/09 00:50:07;;;;;;;1.23;0.80;;;;;16.20;98316.00;;;;2079683;28;20724;-53
2023/01/09 00:51:07;;;;;;;0.93;0.68;;;;;16.20;98324.00;;;;2079265;28;20610;-55
2023/01/09 00:52:08;;;;;;;0.80;0.63;;;;;16.20;98315.00;;;;2078469;28;20279;-51
2023/01/09 00:53:12;;;;;;;0.95;0.70;;;;;16.20;98315.00;;;;2078687;28;20228;-54
2023/01/09 00:54:14;;;;;;;1.00;0.80;;;;;16.20;98319.00;;;;2070279;28;20254;-54
2023/01/09 00:55:14;;;;;;;0.98;0.70;;;;;16.20;98321.00;;;;2070564;28;20304;-55
2023/01/09 00:56:15;;;;;;;0.80;0.50;;;;;16.20;98327.00;;;;2070607;28;20694;-54
2023/01/09 00:57:16;;;;;;;0.85;0.68;;;;;16.20;98324.00;;;;2069174;28;20301;-54
2023/01/09 00:58:16;;;;;;;1.20;0.80;;;;;16.20;98317.00;;;;2063372;28;20210;-54
2023/01/09 00:59:16;;;;;;;1.00;0.77;;;;;16.20;98319.00;;;;2070679;28;20213;-55
2023/01/09 01:00:17;;;;;;;1.17;0.70;;;;;16.20;98321.00;;;;2071105;28;20215;-55
2023/01/09 01:01:18;;;;;;;1.00;0.80;;;;;16.20;98326.00;;;;2069894;28;20258;-55
2023/01/09 01:02:18;;;;;;;1.00;0.80;;;;;16.20;98336.00;;;;2072837;28;20555;-54
2023/01/09 01:03:18;;;;;;;0.90;0.70;;;;;16.20;98328.00;;;;2079476;28;20217;-53
2023/01/09 01:08:17;;;;;;;1.10;0.80;;;;;16.20;98334.00;;;;2079584;28;22874;-56
2023/01/09 01:09:17;;;;;;;0.77;0.70;;;;;16.20;98335.00;;;;2079675;28;20247;-55
2023/01/09 01:10:22;;;;;;;1.13;0.70;;;;;16.20;98339.00;;;;2079466;28;20947;-55
2023/01/09 01:11:22;;;;;;;1.02;0.65;;;;;16.20;98343.00;;;;2075270;28;20222;-55
2023/01/09 01:12:22;;;;;;;0.80;0.60;;;;;16.20;98345.00;;;;2069509;28;20646;-56
2023/01/09 01:13:23;;;;;;;0.83;0.50;;;;;16.20;98343.00;;;;2071436;28;20277;-54
2023/01/09 01:14:23;;;;;;;1.00;0.80;;;;;16.20;98350.00;;;;2071347;28;20214;-53
2023/01/09 01:15:28;;;;;;;0.83;0.60;;;;;16.20;98349.00;;;;2071255;28;20329;-55
2023/01/09 01:16:28;;;;;;;0.80;0.50;;;;;16.20;98339.00;;;;2079289;28;20694;-55
2023/01/09 01:17:28;;;;;;;0.90;0.50;;;;;16.20;98343.00;;;;2079335;28;20243;-55
2023/01/09 01:18:29;;;;;;;1.30;0.77;;;;;16.20;98345.00;;;;2079314;28;20213;-55
2023/01/09 01:19:29;;;;;;;0.87;0.63;;;;;16.20;98351.00;;;;2079382;28;20228;-52
2023/01/09 01:20:29;;;;;;;1.63;0.73;;;;;16.20;98347.00;;;;2079339;28;20241;-51
2023/01/09 01:21:30;;;;;;;0.90;0.60;;;;;16.20;98355.00;;;;2079518;28;20710;-52
2023/01/09 01:22:30;;;;;;;1.00;0.60;;;;;16.20;98348.00;;;;2078190;28;20251;-55
2023/01/09 01:23:30;;;;;;;0.90;0.53;;;;;16.20;98342.00;;;;2079385;28;20214;-54
2023/01/09 01:24:31;;;;;;;0.90;0.70;;;;;16.20;98349.00;;;;2079522;28;20976;-53
2023/01/09 01:25:31;;;;;;;0.70;0.50;;;;;16.20;98344.00;;;;2079330;28;20760;-55
2023/01/09 01:26:31;;;;;;;1.00;0.70;;;;;16.20;98351.00;;;;2079182;28;21180;-54
2023/01/09 01:27:32;;;;;;;0.90;0.70;;;;;16.20;98348.00;;;;2079273;28;20785;-54
2023/01/09 01:28:32;;;;;;;1.10;0.90;;;;;16.20;98351.00;;;;2079377;28;20599;-55
2023/01/09 01:29:32;;;;;;;0.80;0.60;;;;;16.20;98350.00;;;;2078608;28;20213;-54
2023/01/09 01:30:36;;;;;;;0.97;0.70;;;;;16.20;98351.00;;;;2078289;28;20462;-55
2023/01/09 01:31:37;;;;;;;0.80;0.60;;;;;16.20;98346.00;;;;2078657;28;20244;-55
2023/01/09 01:32:37;;;;;;;0.80;0.50;;;;;16.20;98349.00;;;;2077868;28;20213;-56
2023/01/09 01:33:37;;;;;;;0.80;0.60;;;;;16.20;98362.00;;;;2078465;28;20256;-55
2023/01/09 01:34:37;;;;;;;1.10;0.60;;;;;16.20;98355.00;;;;2078171;28;20213;-55
2023/01/09 01:35:38;;;;;;;1.10;0.60;;;;;16.20;98361.00;;;;2078551;28;20263;-52
2023/01/09 01:36:38;;;;;;;0.90;0.70;;;;;16.20;98352.00;;;;2078743;28;20206;-55
2023/01/09 01:37:39;;;;;;;1.20;0.80;;;;;16.20;98361.00;;;;2078674;28;20251;-55
2023/01/09 01:38:39;;;;;;;1.00;0.70;;;;;16.20;98358.00;;;;2078807;28;20239;-55
2023/01/09 01:39:39;;;;;;;0.80;0.50;;;;;16.20;98353.00;;;;2078869;28;20229;-56
2023/01/09 01:40:40;;;;;;;1.03;0.77;;;;;16.20;98355.00;;;;2077185;28;20217;-52
2023/01/09 01:41:40;;;;;;;0.60;0.50;;;;;16.20;98361.00;;;;2075021;28;20218;-55
2023/01/09 01:42:51;;;;;;;2.00;0.90;;;;;16.20;98365.00;;;;2077962;28;20292;-52
2023/01/09 01:43:57;;;;;;;1.00;0.80;;;;;16.20;98368.00;;;;2079172;28;20709;-55
2023/01/09 01:45:13;;;;;;;0.70;0.55;;;;;16.20;98360.00;;;;2079279;28;20760;-54
2023/01/09 01:46:15;;;;;;;1.33;0.80;;;;;16.00;98371.00;;;;2072232;28;20724;-55
2023/01/09 01:47:16;;;;;;;0.90;0.60;;;;;16.20;98365.00;;;;2078033;28;20209;-53
2023/01/09 01:48:20;;;;;;;0.80;0.60;;;;;16.20;98365.00;;;;2069904;28;20618;-56
2023/01/09 01:49:20;;;;;;;0.70;0.50;;;;;16.20;98365.00;;;;2062456;28;20215;-55
2023/01/09 01:50:26;;;;;;;0.70;0.60;;;;;16.20;98366.00;;;;2078287;28;20210;-55
2023/01/09 01:51:27;;;;;;;0.90;0.60;;;;;16.20;98367.00;;;;2079143;28;20335;-55
2023/01/09 01:52:27;;;;;;;1.10;0.80;;;;;16.20;98366.00;;;;2076913;28;20221;-55
2023/01/09 01:53:39;;;;;;;1.00;0.60;;;;;16.20;98378.00;;;;2077767;28;20309;-56
2023/01/09 01:54:39;;;;;;;0.90;0.70;;;;;16.20;98367.00;;;;2078604;28;20760;-54
2023/01/09 01:55:46;;;;;;;0.87;0.60;;;;;16.20;98380.00;;;;2077678;28;20255;-53
2023/01/09 01:56:48;;;;;;;0.80;0.60;;;;;16.20;98369.00;;;;2078201;28;20309;-54
2023/01/09 01:57:49;;;;;;;1.05;0.65;;;;;16.20;98365.00;;;;2077373;28;20685;-54
2023/01/09 01:59:16;;;;;;;1.20;0.63;;;;;16.10;98370.00;;;;2070022;28;20215;-55
2023/01/09 02:00:38;;;;;;;1.02;0.57;;;;;16.20;98376.00;;;;2073676;28;20649;-55
2023/01/09 02:01:40;;;;;;;0.80;0.70;;;;;16.20;98374.00;;;;2064525;28;20218;-55
2023/01/09 02:02:42;;;;;;;0.90;0.50;;;;;16.20;98373.00;;;;2064323;28;20222;-54
2023/01/09 02:03:42;;;;;;;0.75;0.52;;;;;16.20;98381.00;;;;2070058;28;20218;-56
2023/01/09 02:04:43;;;;;;;0.70;0.60;;;;;16.20;98380.00;;;;2067780;28;20219;-56
2023/01/09 02:05:43;;;;;;;0.70;0.63;;;;;16.20;98378.00;;;;2070024;28;20722;-55
2023/01/09 02:06:44;;;;;;;1.03;0.60;;;;;16.20;98373.00;;;;2070014;28;20694;-55
2023/01/09 02:07:44;;;;;;;0.80;0.50;;;;;16.20;98373.00;;;;2062102;28;20215;-55
2023/01/09 02:08:44;;;;;;;1.00;0.63;;;;;16.20;98371.00;;;;2069847;28;20214;-54
2023/01/09 02:09:45;;;;;;;0.80;0.53;;;;;16.20;98388.00;;;;2078319;28;20272;-55
2023/01/09 02:10:45;;;;;;;0.67;0.50;;;;;16.20;98388.00;;;;2078092;28;20292;-55
2023/01/09 02:11:51;;;;;;;0.90;0.57;;;;;16.20;98390.00;;;;2078626;28;20308;-56
2023/01/09 02:12:51;;;;;;;0.80;0.60;;;;;16.20;98390.00;;;;2079029;28;20256;-54
2023/01/09 02:13:51;;;;;;;1.03;0.67;;;;;16.20;98398.00;;;;2078775;28;20601;-55
2023/01/09 02:15:12;;;;;;;0.90;0.50;;;;;16.10;98396.00;;;;2069190;28;20210;-55
2023/01/09 02:16:40;;;;;;;0.70;0.50;;;;;16.20;98396.00;;;;2072943;28;20297;-52
2023/01/09 02:18:11;;;;;;;0.98;0.70;;;;;16.20;98398.00;;;;2076122;28;20783;-54
2023/01/09 02:19:37;;;;;;;0.75;0.60;;;;;16.10;98399.00;;;;2077997;28;20312;-53
2023/01/09 02:20:42;;;;;;;0.95;0.50;;;;;16.10;98400.00;;;;2079052;28;20213;-55
2023/01/09 02:21:54;;;;;;;0.85;0.60;;;;;16.20;98394.00;;;;2078435;28;20228;-54
2023/01/09 02:23:07;;;;;;;0.80;0.50;;;;;16.10;98391.00;;;;2078950;28;20244;-53
2023/01/09 02:24:21;;;;;;;0.90;0.50;;;;;16.10;98388.00;;;;2078308;28;20220;-55
2023/01/09 02:25:40;;;;;;;0.82;0.60;;;;;16.10;98398.00;;;;2069248;28;20209;-53
2023/01/09 02:27:11;;;;;;;0.70;0.50;;;;;16.10;98396.00;;;;2074270;28;20221;-55
2023/01/09 02:28:20;;;;;;;1.33;0.50;;;;;16.20;98393.00;;;;2073731;28;20681;-55
2023/01/09 02:29:31;;;;;;;0.80;0.40;;;;;16.20;98404.00;;;;2076503;28;20781;-51
2023/01/09 02:30:55;;;;;;;0.77;0.60;;;;;16.10;98408.00;;;;2078029;28;20296;-51
2023/01/09 02:32:14;;;;;;;1.10;0.70;;;;;16.10;98397.00;;;;2076881;28;20308;-55
2023/01/09 02:33:21;;;;;;;0.90;0.50;;;;;16.20;98392.00;;;;2074570;28;20218;-54
2023/01/09 02:34:44;;;;;;;1.20;0.60;;;;;16.20;98404.00;;;;2070150;28;21023;-53
2023/01/09 02:35:56;;;;;;;0.80;0.50;;;;;16.20;98408.00;;;;2067842;28;20224;-54
2023/01/09 02:37:16;;;;;;;0.75;0.60;;;;;16.20;98401.00;;;;2063350;28;20796;-55
2023/01/09 02:38:43;;;;;;;0.85;0.50;;;;;16.20;98402.00;;;;2067441;28;20419;-55
2023/01/09 02:40:22;;;;;;;0.70;0.60;;;;;16.10;98401.00;;;;2077971;28;20589;-54
2023/01/09 02:41:25;;;;;;;0.70;0.50;;;;;16.10;98406.00;;;;2078577;28;20355;-54
2023/01/09 02:42:26;;;;;;;0.80;0.52;;;;;16.10;98399.00;;;;2066732;28;20206;-53
2023/01/09 02:43:26;;;;;;;0.87;0.50;;;;;16.10;98398.00;;;;2068432;28;20288;-55
2023/01/09 02:44:28;;;;;;;1.70;0.60;;;;;16.10;98389.00;;;;2078199;28;20205;-55
2023/01/09 02:45:28;;;;;;;0.82;0.40;;;;;16.10;98386.00;;;;2066736;28;20242;-54
2023/01/09 02:46:28;;;;;;;0.80;0.50;;;;;16.20;98389.00;;;;2078079;28;20245;-55
2023/01/09 02:47:28;;;;;;;0.83;0.50;;;;;16.10;98390.00;;;;2078530;28;20221;-55
2023/01/09 02:48:29;;;;;;;0.80;0.60;;;;;16.20;98388.00;;;;2074804;28;20276;-55
2023/01/09 02:49:30;;;;;;;0.90;0.50;;;;;16.10;98386.00;;;;2086129;28;20225;-56
2023/01/09 02:50:53;;;;;;;1.35;0.60;;;;;16.20;98389.00;;;;2076607;28;20233;-53
2023/01/09 02:52:00;;;;;;;0.65;0.40;;;;;16.20;98390.00;;;;2076937;28;20231;-55
2023/01/09 02:53:15;;;;;;;0.80;0.52;;;;;16.10;98389.00;;;;2070007;28;20301;-55
2023/01/09 02:54:20;;;;;;;1.05;0.65;;;;;16.10;98401.00;;;;2072144;28;20740;-55
2023/01/09 02:55:35;;;;;;;0.80;0.47;;;;;16.10;98397.00;;;;2077932;28;20225;-52
2023/01/09 02:57:02;;;;;;;1.52;0.50;;;;;16.10;98368.00;;;;2078466;28;20284;-55
2023/01/09 02:58:32;;;;;;;0.95;0.43;;;;;16.20;98401.00;;;;2071338;28;20225;-52
2023/01/09 02:59:37;;;;;;;0.70;0.45;;;;;16.10;98406.00;;;;2071679;28;20210;-52
2023/01/09 03:00:56;;;;;;;0.85;0.55;;;;;16.10;98403.00;;;;2069845;28;20210;-55
2023/01/09 03:02:34;;;;;;;0.90;0.40;;;;;16.10;98404.00;;;;2072688;28;20296;-55
2023/01/09 03:03:37;;;;;;;0.80;0.50;;;;;16.10;98399.00;;;;2077078;28;20709;-53
2023/01/09 03:04:56;;;;;;;0.90;0.60;;;;;16.10;98399.00;;;;2069383;28;20221;-55
2023/01/09 03:06:03;;;;;;;0.80;0.50;;;;;16.10;98330.00;;;;2067563;28;20225;-53
2023/01/09 03:07:33;;;;;;;0.80;0.50;;;;;16.10;98407.00;;;;2070702;28;20366;-55
2023/01/09 03:08:37;;;;;;;1.13;0.52;;;;;16.10;98401.00;;;;2073246;28;20727;-54
2023/01/09 03:09:37;;;;;;;0.70;0.40;;;;;16.10;98404.00;;;;2061796;28;20231;-54
2023/01/09 03:11:06;;;;;;;0.60;0.40;;;;;16.10;98395.00;;;;2069655;28;20237;-53
2023/01/09 03:12:10;;;;;;;0.70;0.50;;;;;16.10;98409.00;;;;2076161;28;20226;-55
2023/01/09 03:13:12;;;;;;;0.70;0.50;;;;;16.10;98401.00;;;;2064555;28;20231;-55
2023/01/09 03:14:14;;;;;;;0.88;0.60;;;;;16.10;98398.00;;;;2069973;28;21116;-55
2023/01/09 03:15:15;;;;;;;0.70;0.50;;;;;16.10;98407.00;;;;2077887;28;20224;-55
2023/01/09 03:16:19;;;;;;;0.80;0.40;;;;;16.10;98407.00;;;;2061454;28;20610;-55
2023/01/09 03:17:26;;;;;;;0.93;0.52;;;;;16.10;98408.00;;;;2054580;28;20211;-54
2023/01/09 03:18:27;;;;;;;0.85;0.50;;;;;16.10;98406.00;;;;2069741;28;20210;-54
2023/01/09 03:19:29;;;;;;;0.80;0.40;;;;;16.10;98407.00;;;;2075966;28;20213;-51
2023/01/09 03:20:29;;;;;;;1.38;0.60;;;;;16.10;98402.00;;;;2061772;28;20215;-54
2023/01/09 03:21:29;;;;;;;0.70;0.40;;;;;16.10;98410.00;;;;2053563;28;20706;-55
2023/01/09 03:22:30;;;;;;;0.70;0.50;;;;;16.10;98410.00;;;;2060296;28;20219;-54
2023/01/09 03:23:46;;;;;;;0.80;0.50;;;;;16.20;98416.00;;;;2061397;28;21064;-54
2023/01/09 03:24:46;;;;;;;1.00;0.55;;;;;16.10;98413.00;;;;2077912;28;20213;-55
2023/01/09 03:25:47;;;;;;;0.80;0.50;;;;;16.20;98419.00;;;;2078430;28;20235;-55
2023/01/09 03:26:47;;;;;;;0.83;0.40;;;;;16.10;98414.00;;;;2078408;28;20217;-55
2023/01/09 03:27:49;;;;;;;0.80;0.50;;;;;16.10;98420.00;;;;2077554;28;20300;-55
2023/01/09 03:28:50;;;;;;;0.68;0.45;;;;;16.10;98428.00;;;;2069446;28;20226;-55
2023/01/09 03:29:52;;;;;;;0.93;0.50;;;;;16.10;98427.00;;;;2069777;28;20626;-52
2023/01/09 03:30:52;;;;;;;0.70;0.40;;;;;16.10;98429.00;;;;2077562;28;20263;-52
2023/01/09 03:31:52;;;;;;;0.90;0.60;;;;;16.20;98437.00;;;;2077243;28;20221;-53
2023/01/09 03:32:53;;;;;;;1.00;0.47;;;;;16.10;98438.00;;;;2078574;28;20210;-54
2023/01/09 03:33:54;;;;;;;0.68;0.40;;;;;16.20;98438.00;;;;2073014;28;20209;-55
2023/01/09 03:34:54;;;;;;;0.73;0.40;;;;;16.10;98445.00;;;;2085766;28;20581;-55
2023/01/09 03:35:54;;;;;;;0.60;0.40;;;;;16.10;98443.00;;;;2078447;28;20261;-53
2023/01/09 03:36:55;;;;;;;0.70;0.40;;;;;16.10;98451.00;;;;2078453;28;20209;-55
2023/01/09 03:37:55;;;;;;;1.17;0.50;;;;;16.10;98449.00;;;;2078206;28;20212;-53
2023/01/09 03:38:55;;;;;;;0.83;0.50;;;;;16.10;98450.00;;;;2078263;28;20210;-52
2023/01/09 03:39:56;;;;;;;0.70;0.43;;;;;16.10;98449.00;;;;2078420;28;20202;-55
2023/01/09 03:40:56;;;;;;;0.77;0.43;;;;;16.20;98454.00;;;;2078299;28;20198;-57
2023/01/09 03:41:56;;;;;;;0.70;0.40;;;;;16.10;98445.00;;;;2077154;28;20213;-55
2023/01/09 03:42:57;;;;;;;1.20;0.40;;;;;16.10;98444.00;;;;2077700;28;20228;-53
2023/01/09 03:43:57;;;;;;;0.73;0.40;;;;;16.10;98449.00;;;;2077262;28;20202;-52
2023/01/09 03:44:57;;;;;;;0.80;0.60;;;;;16.20;98439.00;;;;2078225;28;20299;-54
2023/01/09 03:45:58;;;;;;;0.90;0.67;;;;;16.10;98442.00;;;;2078049;28;20210;-55
2023/01/09 03:46:58;;;;;;;0.70;0.40;;;;;16.10;98447.00;;;;2078513;28;20202;-55
2023/01/09 03:47:58;;;;;;;0.70;0.50;;;;;16.10;98448.00;;;;2078480;28;20201;-55
2023/01/09 03:48:59;;;;;;;0.90;0.43;;;;;16.10;98446.00;;;;2077995;28;20237;-55
2023/01/09 03:49:59;;;;;;;0.90;0.40;;;;;16.10;98443.00;;;;2078423;28;20206;-52
2023/01/09 03:50:59;;;;;;;1.10;0.60;;;;;16.10;98444.00;;;;2078296;28;20209;-53
2023/01/09 03:52:00;;;;;;;0.70;0.50;;;;;16.10;98442.00;;;;2077007;28;20209;-55
2023/01/09 03:53:00;;;;;;;0.70;0.43;;;;;16.10;98451.00;;;;2078460;28;20256;-55
2023/01/09 03:54:00;;;;;;;0.70;0.40;;;;;16.10;98443.00;;;;2077538;28;20228;-55
2023/01/09 03:55:01;;;;;;;0.73;0.50;;;;;16.10;98453.00;;;;2077414;28;20371;-53
2023/01/09 03:56:01;;;;;;;0.60;0.40;;;;;16.10;98454.00;;;;2078318;28;20312;-54
2023/01/09 03:57:01;;;;;;;0.67;0.40;;;;;16.00;98461.00;;;;2069126;28;20678;-55
2023/01/09 03:58:02;;;;;;;1.20;0.43;;;;;16.10;98461.00;;;;2077185;28;20828;-52
2023/01/09 03:59:02;;;;;;;0.83;0.60;;;;;16.10;98464.00;;;;2077538;28;20932;-54
2023/01/09 04:00:03;;;;;;;1.50;0.60;;;;;16.10;98463.00;;;;2078019;28;20661;-55
2023/01/09 04:01:04;;;;;;;0.90;0.40;;;;;16.10;98467.00;;;;2078301;28;20561;-55
2023/01/09 04:02:05;;;;;;;0.70;0.40;;;;;16.10;98463.00;;;;2076940;28;21359;-54
2023/01/09 04:03:06;;;;;;;0.73;0.50;;;;;16.10;98461.00;;;;2078291;28;20220;-54
2023/01/09 04:04:06;;;;;;;0.68;0.40;;;;;16.00;98458.00;;;;2077989;28;20674;-55
2023/01/09 04:05:07;;;;;;;0.70;0.60;;;;;16.10;98465.00;;;;2077933;28;20233;-52
2023/01/09 04:06:07;;;;;;;0.60;0.50;;;;;16.10;98466.00;;;;2078216;28;20236;-55
2023/01/09 04:07:07;;;;;;;0.70;0.40;;;;;16.10;98456.00;;;;2078150;28;20729;-55
2023/01/09 04:08:08;;;;;;;0.60;0.40;;;;;16.10;98464.00;;;;2078392;28;20686;-55
2023/01/09 04:09:08;;;;;;;0.90;0.40;;;;;16.10;98471.00;;;;2078276;28;20225;-55
2023/01/09 04:10:09;;;;;;;0.60;0.40;;;;;16.10;98467.00;;;;2078162;28;20617;-52
2023/01/09 04:11:09;;;;;;;0.60;0.40;;;;;16.10;98461.00;;;;2076189;28;20217;-55
2023/01/09 04:12:10;;;;;;;0.60;0.40;;;;;16.10;98463.00;;;;2076753;28;20210;-53
2023/01/09 04:13:10;;;;;;;0.73;0.40;;;;;16.10;98467.00;;;;2078132;28;20221;-55
2023/01/09 04:14:10;;;;;;;0.70;0.40;;;;;16.10;98463.00;;;;2078043;28;20579;-52
2023/01/09 04:15:11;;;;;;;0.60;0.40;;;;;16.10;98468.00;;;;2078131;28;20201;-55
2023/01/09 04:16:11;;;;;;;0.70;0.40;;;;;16.10;98459.00;;;;2078196;28;20209;-55
2023/01/09 04:17:12;;;;;;;1.93;0.60;;;;;16.10;98454.00;;;;2078237;28;20640;-52
2023/01/09 04:18:12;;;;;;;0.70;0.40;;;;;16.10;98461.00;;;;2078354;28;20545;-53
2023/01/09 04:19:12;;;;;;;1.00;0.40;;;;;16.10;98463.00;;;;2077951;28;20795;-54
2023/01/09 04:20:13;;;;;;;0.70;0.40;;;;;16.00;98462.00;;;;2078317;28;20213;-53
2023/01/09 04:21:13;;;;;;;1.17;0.50;;;;;16.10;98456.00;;;;2077888;28;20219;-53
2023/01/09 04:22:13;;;;;;;0.63;0.47;;;;;16.10;98471.00;;;;2076508;28;20745;-54
2023/01/09 04:23:14;;;;;;;1.57;1.37;;;;;16.10;98460.00;;;;2078177;28;20743;-53
2023/01/09 04:24:14;;;;;;;0.70;0.50;;;;;16.10;98457.00;;;;2077107;28;20214;-54
2023/01/09 04:25:15;;;;;;;1.23;0.77;;;;;16.10;98450.00;;;;2078041;28;20632;-55
2023/01/09 04:26:15;;;;;;;0.60;0.40;;;;;16.10;98464.00;;;;2078182;28;20212;-52
2023/01/09 04:27:15;;;;;;;0.80;0.47;;;;;16.10;98463.00;;;;2078182;28;20210;-54
2023/01/09 04:28:16;;;;;;;0.73;0.50;;;;;16.10;98456.00;;;;2078171;28;20239;-55
2023/01/09 04:29:16;;;;;;;0.60;0.40;;;;;16.10;98462.00;;;;2077686;28;20209;-55
2023/01/09 04:30:16;;;;;;;0.83;0.50;;;;;16.10;98467.00;;;;2078254;28;20206;-55
2023/01/09 04:31:17;;;;;;;0.70;0.40;;;;;16.10;98466.00;;;;2078136;28;20308;-55
2023/01/09 04:32:17;;;;;;;0.80;0.50;;;;;16.10;98455.00;;;;2076843;28;20239;-56
2023/01/09 04:33:17;;;;;;;0.60;0.40;;;;;16.10;98464.00;;;;2078154;28;20207;-56
2023/01/09 04:34:18;;;;;;;0.73;0.40;;;;;16.10;98457.00;;;;2078029;28;20225;-54
2023/01/09 04:35:18;;;;;;;0.80;0.50;;;;;16.10;98464.00;;;;2078295;28;20233;-55
2023/01/09 04:36:19;;;;;;;0.70;0.40;;;;;16.10;98460.00;;;;2078161;28;20213;-55
2023/01/09 04:37:19;;;;;;;0.67;0.40;;;;;16.10;98462.00;;;;2077642;28;20205;-55
2023/01/09 04:38:20;;;;;;;0.80;0.50;;;;;16.10;98466.00;;;;2078263;28;20291;-53
2023/01/09 04:39:20;;;;;;;1.20;0.40;;;;;16.10;98460.00;;;;2078077;28;20646;-55
2023/01/09 04:40:20;;;;;;;1.00;0.50;;;;;16.10;98468.00;;;;2077918;28;20593;-55
2023/01/09 04:42:40;;;;;;;0.98;0.40;;;;;16.10;98471.00;;;;2076035;28;20750;-56
2023/01/09 04:43:41;;;;;;;1.00;0.40;;;;;16.10;98472.00;;;;2077936;28;20235;-53
2023/01/09 04:44:41;;;;;;;0.60;0.40;;;;;16.10;98476.00;;;;2078328;28;20244;-55
2023/01/09 04:45:41;;;;;;;0.60;0.40;;;;;16.10;98478.00;;;;2078266;28;20871;-56
2023/01/09 04:46:42;;;;;;;0.90;0.40;;;;;16.10;98481.00;;;;2078171;28;20610;-56
2023/01/09 04:47:42;;;;;;;0.70;0.40;;;;;16.10;98478.00;;;;2077768;28;20744;-56
2023/01/09 04:48:42;;;;;;;0.70;0.40;;;;;16.10;98483.00;;;;2078239;28;20678;-52
2023/01/09 04:49:43;;;;;;;0.70;0.40;;;;;16.10;98483.00;;;;2078142;28;20220;-55
2023/01/09 04:50:43;;;;;;;1.20;0.40;;;;;16.10;98479.00;;;;2078043;28;20210;-55
2023/01/09 04:51:43;;;;;;;0.60;0.40;;;;;16.10;98482.00;;;;2077637;28;20609;-55
2023/01/09 04:52:44;;;;;;;0.70;0.50;;;;;16.10;98476.00;;;;2077122;28;20581;-54
2023/01/09 04:53:44;;;;;;;0.80;0.50;;;;;16.10;98488.00;;;;2078051;28;20237;-55
2023/01/09 04:54:44;;;;;;;0.60;0.40;;;;;16.10;98489.00;;;;2078295;28;20226;-55
2023/01/09 04:55:45;;;;;;;0.70;0.50;;;;;16.10;98482.00;;;;2076015;28;20218;-53
2023/01/09 04:56:45;;;;;;;0.60;0.40;;;;;16.10;98476.00;;;;2077390;28;20217;-53
2023/01/09 04:57:45;;;;;;;0.60;0.40;;;;;16.10;98484.00;;;;2068698;28;20246;-55
2023/01/09 04:58:46;;;;;;;1.07;0.57;;;;;16.10;98487.00;;;;2077343;28;20218;-55
2023/01/09 04:59:46;;;;;;;0.90;0.40;;;;;16.10;98496.00;;;;2074844;28;20217;-55
2023/01/09 05:00:46;;;;;;;0.60;0.40;;;;;16.10;98490.00;;;;2070989;28;20249;-55
2023/01/09 05:01:47;;;;;;;1.10;0.50;;;;;16.10;98491.00;;;;2077027;28;20216;-55
2023/01/09 05:02:47;;;;;;;0.70;0.40;;;;;16.10;98496.00;;;;2076543;28;20218;-52
2023/01/09 05:03:47;;;;;;;0.73;0.40;;;;;16.10;98500.00;;;;2077110;28;20233;-53
2023/01/09 05:04:48;;;;;;;0.77;0.40;;;;;16.10;98501.00;;;;2077602;28;20222;-55
2023/01/09 05:05:48;;;;;;;0.70;0.40;;;;;16.10;98492.00;;;;2075803;28;20244;-55
2023/01/09 05:06:48;;;;;;;0.77;0.50;;;;;16.10;98494.00;;;;2077087;28;20323;-54
2023/01/09 05:07:49;;;;;;;0.90;0.50;;;;;16.10;98497.00;;;;2078186;28;20661;-55
2023/01/09 05:08:49;;;;;;;1.10;0.40;;;;;16.10;98496.00;;;;2078686;28;20792;-55
2023/01/09 05:09:50;;;;;;;1.03;0.50;;;;;16.10;98506.00;;;;2077988;28;20217;-54
2023/01/09 05:10:50;;;;;;;0.80;0.50;;;;;16.10;98508.00;;;;2078342;28;20233;-55
2023/01/09 05:11:50;;;;;;;0.70;0.40;;;;;16.10;98502.00;;;;2077324;28;20236;-55
2023/01/09 05:12:51;;;;;;;1.10;0.50;;;;;16.10;98506.00;;;;2076194;28;20232;-54
2023/01/09 05:13:52;;;;;;;0.77;0.40;;;;;16.10;98501.00;;;;2078297;28;20244;-55
2023/01/09 05:14:52;;;;;;;0.70;0.50;;;;;16.10;98499.00;;;;2078521;28;20555;-54
2023/01/09 05:15:52;;;;;;;0.70;0.50;;;;;16.10;98502.00;;;;2079660;28;20291;-53
2023/01/09 05:16:53;;;;;;;0.80;0.50;;;;;16.10;98499.00;;;;2079495;28;20222;-54
2023/01/09 05:17:53;;;;;;;0.70;0.50;;;;;16.10;98504.00;;;;2076882;28;20229;-54
2023/01/09 05:18:55;;;;;;;0.73;0.50;;;;;16.10;98513.00;;;;2079324;28;20218;-55
2023/01/09 05:19:56;;;;;;;1.15;0.50;;;;;16.10;98519.00;;;;2079484;28;20229;-52
2023/01/09 05:20:56;;;;;;;0.60;0.30;;;;;16.10;98513.00;;;;2079493;28;20214;-54
2023/01/09 05:21:56;;;;;;;0.77;0.40;;;;;16.10;98510.00;;;;2078347;28;20232;-55
2023/01/09 05:22:57;;;;;;;0.70;0.50;;;;;16.10;98517.00;;;;2079198;28;20252;-55